No particular awareness of the weather is required.    There are no Weather-warnings


Meteo18 Weather Cam more information Meteo18 Weather Cam


Thunder radar more information blitzortung!


Rain radar more information rain snow radar


Visit our other weather sites:

Template documentation
and downloads

And another site



Weather Underground History page Text

Daily Summary for February 28, 2018 Units:  Both    English   Metric
« Previous Day
Next Day »
Daily Weekly Monthly Yearly Custom
  High: Low: Average:
Temperature: TemperatureC °F /  -17.8 °C -10.9 °F /  -23.8 °C -5.3 °F /  -20.7 °C
Dew Point: DewpointC °F /  -17.8 °C -13.7 °F /  -25.4 °C -9.9 °F /  -23.3 °C
Humidity: Humidity % 47 % 71 %
Wind Speed: WindSpeedKMH mph /  0 km/h - 8.2 mph /  13.2 km/h
Wind Gust: WindSpeedGustKMH mph /  0 km/h - -
Wind:- - ENE
Pressure: PressurehPa in /  0 hPa 997.9 in /  33788.9 hPa -
Precipitation: 0.0 in /  0 mm    
Historical Graphs
 
 
Tabular Data for February 28, 2018
Time Temperature Dew Point Pressure Wind Wind Speed Wind Gust Humidity Rainfall Rate (Hourly)
TemperatureC °F /  -17.8 °C DewpointC °F /  -17.8 °C PressurehPa in /  0 hPa Calm     Humidity % HourlyPrecipMM in /  0 mm
00:00 -7.5 °F /  -21.9 °C -11.8 °F /  -24.3 °C 1014.4 in /  34347.6 hPa ENE 3.2 mph /  5.1 km/h 6.4 mph /  10.3 km/h 71 % 0.0 in /  0 mm
00:06 -7.6 °F /  -22 °C -11.8 °F /  -24.3 °C 1014.4 in /  34347.6 hPa NE 6.4 mph /  10.3 km/h 6.4 mph /  10.3 km/h 72 % 0.0 in /  0 mm
00:12 -7.7 °F /  -22.1 °C -11.9 °F /  -24.4 °C 1014.4 in /  34347.6 hPa NE 1.4 mph /  2.3 km/h 4.8 mph /  7.7 km/h 72 % 0.0 in /  0 mm
00:18 -7.7 °F /  -22.1 °C -11.9 °F /  -24.4 °C 1014.4 in /  34347.6 hPa NNE 3.2 mph /  5.1 km/h 6.4 mph /  10.3 km/h 72 % 0.0 in /  0 mm
00:24 -7.7 °F /  -22.1 °C -11.7 °F /  -24.3 °C 1014.1 in /  34337.4 hPa NNE 3.2 mph /  5.1 km/h 4.8 mph /  7.7 km/h 73 % 0.0 in /  0 mm
00:30 -7.8 °F /  -22.1 °C -11.8 °F /  -24.3 °C 1014.1 in /  34337.4 hPa NE 4.7 mph /  7.6 km/h 6.4 mph /  10.3 km/h 73 % 0.0 in /  0 mm
00:36 -7.8 °F /  -22.1 °C -11.8 °F /  -24.3 °C 1014.1 in /  34337.4 hPa NNE 1.4 mph /  2.3 km/h 8.0 mph /  12.9 km/h 73 % 0.0 in /  0 mm
00:42 -7.9 °F /  -22.2 °C -11.9 °F /  -24.4 °C 1014.1 in /  34337.4 hPa NNE 3.2 mph /  5.1 km/h 4.8 mph /  7.7 km/h 73 % 0.0 in /  0 mm
00:48 -8.1 °F /  -22.3 °C -11.9 °F /  -24.4 °C 1013.8 in /  34327.3 hPa NE 4.7 mph /  7.6 km/h 6.4 mph /  10.3 km/h 74 % 0.0 in /  0 mm
00:54 -8.1 °F /  -22.3 °C -11.9 °F /  -24.4 °C 1013.8 in /  34327.3 hPa North 1.4 mph /  2.3 km/h 3.2 mph /  5.1 km/h 74 % 0.0 in /  0 mm
01:00 -8.2 °F /  -22.3 °C -12.0 °F /  -24.4 °C 1013.8 in /  34327.3 hPa NE 1.4 mph /  2.3 km/h 6.4 mph /  10.3 km/h 74 % 0.0 in /  0 mm
01:06 -8.3 °F /  -22.4 °C -11.9 °F /  -24.4 °C 1013.4 in /  34313.7 hPa North 1.4 mph /  2.3 km/h 4.8 mph /  7.7 km/h 75 % 0.0 in /  0 mm
01:12 -8.6 °F /  -22.6 °C -12.2 °F /  -24.6 °C 1013.4 in /  34313.7 hPa NE 3.2 mph /  5.1 km/h 8.0 mph /  12.9 km/h 75 % 0.0 in /  0 mm
01:18 -8.7 °F /  -22.6 °C -12.3 °F /  -24.6 °C 1013.4 in /  34313.7 hPa Calm   3.2 mph /  5.1 km/h 75 % 0.0 in /  0 mm
01:24 -8.8 °F /  -22.7 °C -12.3 °F /  -24.6 °C 1013.4 in /  34313.7 hPa Calm   3.2 mph /  5.1 km/h 76 % 0.0 in /  0 mm
01:30 -8.8 °F /  -22.7 °C -12.3 °F /  -24.6 °C 1013.8 in /  34327.3 hPa Calm   1.6 mph /  2.6 km/h 76 % 0.0 in /  0 mm
01:36 -8.9 °F /  -22.7 °C -12.4 °F /  -24.7 °C 1013.4 in /  34313.7 hPa Calm   3.2 mph /  5.1 km/h 76 % 0.0 in /  0 mm
01:42 -9.0 °F /  -22.8 °C -12.3 °F /  -24.6 °C 1013.4 in /  34313.7 hPa Calm   3.2 mph /  5.1 km/h 77 % 0.0 in /  0 mm
01:48 -9.1 °F /  -22.8 °C -12.4 °F /  -24.7 °C 1013.4 in /  34313.7 hPa Calm   3.2 mph /  5.1 km/h 77 % 0.0 in /  0 mm
01:54 -9.0 °F /  -22.8 °C -12.3 °F /  -24.6 °C 1013.4 in /  34313.7 hPa Calm   3.2 mph /  5.1 km/h 77 % 0.0 in /  0 mm
02:00 -8.9 °F /  -22.7 °C -12.2 °F /  -24.6 °C 1013.4 in /  34313.7 hPa NNE 1.4 mph /  2.3 km/h 4.8 mph /  7.7 km/h 77 % 0.0 in /  0 mm
02:06 -8.9 °F /  -22.7 °C -12.2 °F /  -24.6 °C 1013.1 in /  34303.6 hPa NE 1.4 mph /  2.3 km/h 6.4 mph /  10.3 km/h 77 % 0.0 in /  0 mm
02:12 -8.8 °F /  -22.7 °C -12.3 °F /  -24.6 °C 1013.1 in /  34303.6 hPa NNE 3.2 mph /  5.1 km/h 9.7 mph /  15.6 km/h 76 % 0.0 in /  0 mm
02:18 -8.6 °F /  -22.6 °C -12.2 °F /  -24.6 °C 1013.1 in /  34303.6 hPa NE 7.9 mph /  12.7 km/h 9.7 mph /  15.6 km/h 75 % 0.0 in /  0 mm
02:24 -8.6 °F /  -22.6 °C -12.4 °F /  -24.7 °C 1013.1 in /  34303.6 hPa NNE 3.2 mph /  5.1 km/h 14.5 mph /  23.3 km/h 74 % 0.0 in /  0 mm
02:30 -8.5 °F /  -22.5 °C -12.5 °F /  -24.7 °C 1013.1 in /  34303.6 hPa NE 4.7 mph /  7.6 km/h 9.7 mph /  15.6 km/h 73 % 0.0 in /  0 mm
02:36 -8.4 °F /  -22.4 °C -12.4 °F /  -24.7 °C 1013.1 in /  34303.6 hPa NE 3.2 mph /  5.1 km/h 8.0 mph /  12.9 km/h 73 % 0.0 in /  0 mm
02:42 -8.4 °F /  -22.4 °C -12.5 °F /  -24.7 °C 1013.1 in /  34303.6 hPa NE 14.5 mph /  23.3 km/h 14.5 mph /  23.3 km/h 72 % 0.0 in /  0 mm
02:48 -8.4 °F /  -22.4 °C -12.5 °F /  -24.7 °C 1012.8 in /  34293.4 hPa NNE 1.4 mph /  2.3 km/h 8.0 mph /  12.9 km/h 72 % 0.0 in /  0 mm
02:54 -8.4 °F /  -22.4 °C -12.7 °F /  -24.8 °C 1012.8 in /  34293.4 hPa ENE 4.7 mph /  7.6 km/h 17.7 mph /  28.5 km/h 71 % 0.0 in /  0 mm
03:00 -8.5 °F /  -22.5 °C -12.8 °F /  -24.9 °C 1012.8 in /  34293.4 hPa NNE 6.4 mph /  10.3 km/h 9.7 mph /  15.6 km/h 71 % 0.0 in /  0 mm
03:06 -8.6 °F /  -22.6 °C -12.9 °F /  -24.9 °C 1012.8 in /  34293.4 hPa NNE 3.2 mph /  5.1 km/h 6.4 mph /  10.3 km/h 71 % 0.0 in /  0 mm
03:12 -8.6 °F /  -22.6 °C -12.9 °F /  -24.9 °C 1012.4 in /  34279.9 hPa NNE 4.7 mph /  7.6 km/h 4.8 mph /  7.7 km/h 71 % 0.0 in /  0 mm
03:18 -8.7 °F /  -22.6 °C -12.8 °F /  -24.9 °C 1012.4 in /  34279.9 hPa NNE 1.4 mph /  2.3 km/h 4.8 mph /  7.7 km/h 72 % 0.0 in /  0 mm
03:24 -8.9 °F /  -22.7 °C -12.9 °F /  -24.9 °C 1012.4 in /  34279.9 hPa NNE 4.7 mph /  7.6 km/h 4.8 mph /  7.7 km/h 73 % 0.0 in /  0 mm
03:30 -8.9 °F /  -22.7 °C -12.7 °F /  -24.8 °C 1012.1 in /  34269.7 hPa NNW 1.4 mph /  2.3 km/h 3.2 mph /  5.1 km/h 74 % 0.0 in /  0 mm
03:36 -9.1 °F /  -22.8 °C -12.9 °F /  -24.9 °C 1012.4 in /  34279.9 hPa NNE 1.4 mph /  2.3 km/h 3.2 mph /  5.1 km/h 74 % 0.0 in /  0 mm
03:42 -9.2 °F /  -22.9 °C -13.0 °F /  -25 °C 1012.4 in /  34279.9 hPa Calm   1.6 mph /  2.6 km/h 74 % 0.0 in /  0 mm
03:48 -9.2 °F /  -22.9 °C -13.0 °F /  -25 °C 1012.1 in /  34269.7 hPa Calm   4.8 mph /  7.7 km/h 74 % 0.0 in /  0 mm
03:54 -9.3 °F /  -22.9 °C -12.9 °F /  -24.9 °C 1012.1 in /  34269.7 hPa Calm   6.4 mph /  10.3 km/h 75 % 0.0 in /  0 mm
04:00 -9.3 °F /  -22.9 °C -12.9 °F /  -24.9 °C 1012.1 in /  34269.7 hPa Calm   4.8 mph /  7.7 km/h 75 % 0.0 in /  0 mm
04:06 -9.4 °F /  -23 °C -13.0 °F /  -25 °C 1012.1 in /  34269.7 hPa Calm   6.4 mph /  10.3 km/h 75 % 0.0 in /  0 mm
04:12 -9.4 °F /  -23 °C -13.0 °F /  -25 °C 1012.1 in /  34269.7 hPa NNW 1.4 mph /  2.3 km/h 4.8 mph /  7.7 km/h 75 % 0.0 in /  0 mm
04:18 -9.4 °F /  -23 °C -13.0 °F /  -25 °C 1012.1 in /  34269.7 hPa Calm   4.8 mph /  7.7 km/h 75 % 0.0 in /  0 mm
04:24 -9.5 °F /  -23.1 °C -13.1 °F /  -25.1 °C 1012.1 in /  34269.7 hPa Calm   1.6 mph /  2.6 km/h 75 % 0.0 in /  0 mm
04:30 -9.6 °F /  -23.1 °C -13.2 °F /  -25.1 °C 1012.1 in /  34269.7 hPa Calm   1.6 mph /  2.6 km/h 75 % 0.0 in /  0 mm
04:36 -9.7 °F /  -23.2 °C -13.3 °F /  -25.2 °C 1012.1 in /  34269.7 hPa Calm   1.6 mph /  2.6 km/h 75 % 0.0 in /  0 mm
04:42 -9.8 °F /  -23.2 °C -13.4 °F /  -25.2 °C 1012.1 in /  34269.7 hPa Calm   1.6 mph /  2.6 km/h 75 % 0.0 in /  0 mm
04:48 -9.8 °F /  -23.2 °C -13.2 °F /  -25.1 °C 1012.1 in /  34269.7 hPa NW 1.4 mph /  2.3 km/h 1.6 mph /  2.6 km/h 76 % 0.0 in /  0 mm
04:54 -9.8 °F /  -23.2 °C -13.4 °F /  -25.2 °C 1012.1 in /  34269.7 hPa Calm   1.6 mph /  2.6 km/h 75 % 0.0 in /  0 mm
05:00 -9.9 °F /  -23.3 °C -13.3 °F /  -25.2 °C 1011.7 in /  34256.2 hPa Calm   1.6 mph /  2.6 km/h 76 % 0.0 in /  0 mm
05:06 -9.9 °F /  -23.3 °C -13.3 °F /  -25.2 °C 1011.7 in /  34256.2 hPa North 1.4 mph /  2.3 km/h 1.6 mph /  2.6 km/h 76 % 0.0 in /  0 mm
05:12 -10.0 °F /  -23.3 °C -13.4 °F /  -25.2 °C 1011.7 in /  34256.2 hPa Calm   1.6 mph /  2.6 km/h 76 % 0.0 in /  0 mm
05:18 -10.1 °F /  -23.4 °C -13.5 °F /  -25.3 °C 1012.1 in /  34269.7 hPa Calm   1.6 mph /  2.6 km/h 76 % 0.0 in /  0 mm
05:24 -10.1 °F /  -23.4 °C -13.4 °F /  -25.2 °C 1012.1 in /  34269.7 hPa Calm   1.6 mph /  2.6 km/h 77 % 0.0 in /  0 mm
05:30 -10.2 °F /  -23.4 °C -13.5 °F /  -25.3 °C 1011.7 in /  34256.2 hPa Calm   1.6 mph /  2.6 km/h 77 % 0.0 in /  0 mm
05:37 -10.2 °F /  -23.4 °C -13.5 °F /  -25.3 °C 1011.7 in /  34256.2 hPa Calm   1.6 mph /  2.6 km/h 77 % 0.0 in /  0 mm
05:43 -10.3 °F /  -23.5 °C -13.6 °F /  -25.3 °C 1011.7 in /  34256.2 hPa Calm     77 % 0.0 in /  0 mm
05:49 -10.3 °F /  -23.5 °C -13.4 °F /  -25.2 °C 1011.7 in /  34256.2 hPa Calm   1.6 mph /  2.6 km/h 78 % 0.0 in /  0 mm
05:55 -10.4 °F /  -23.6 °C -13.5 °F /  -25.3 °C 1011.7 in /  34256.2 hPa Calm   1.6 mph /  2.6 km/h 78 % 0.0 in /  0 mm
06:01 -10.6 °F /  -23.7 °C -13.7 °F /  -25.4 °C 1011.7 in /  34256.2 hPa Calm     78 % 0.0 in /  0 mm
06:07 -10.6 °F /  -23.7 °C -13.7 °F /  -25.4 °C 1011.7 in /  34256.2 hPa Calm   1.6 mph /  2.6 km/h 78 % 0.0 in /  0 mm
06:13 -10.6 °F /  -23.7 °C -13.5 °F /  -25.3 °C 1011.7 in /  34256.2 hPa Calm   1.6 mph /  2.6 km/h 79 % 0.0 in /  0 mm
06:19 -10.7 °F /  -23.7 °C -13.6 °F /  -25.3 °C 1011.7 in /  34256.2 hPa North 1.4 mph /  2.3 km/h 1.6 mph /  2.6 km/h 79 % 0.0 in /  0 mm
06:25 -10.7 °F /  -23.7 °C -13.6 °F /  -25.3 °C 1011.4 in /  34246 hPa Calm   3.2 mph /  5.1 km/h 79 % 0.0 in /  0 mm
06:31 -10.8 °F /  -23.8 °C -13.6 °F /  -25.3 °C 1011.4 in /  34246 hPa NE 1.4 mph /  2.3 km/h 3.2 mph /  5.1 km/h 80 % 0.0 in /  0 mm
06:37 -10.9 °F /  -23.8 °C -13.5 °F /  -25.3 °C 1011.1 in /  34235.8 hPa NNW 1.4 mph /  2.3 km/h 3.2 mph /  5.1 km/h 81 % 0.0 in /  0 mm
06:43 -10.8 °F /  -23.8 °C -13.4 °F /  -25.2 °C 1011.4 in /  34246 hPa Calm   4.8 mph /  7.7 km/h 81 % 0.0 in /  0 mm
06:49 -10.8 °F /  -23.8 °C -13.4 °F /  -25.2 °C 1011.4 in /  34246 hPa NNE 4.7 mph /  7.6 km/h 6.4 mph /  10.3 km/h 81 % 0.0 in /  0 mm
06:55 -10.6 °F /  -23.7 °C -13.4 °F /  -25.2 °C 1011.1 in /  34235.8 hPa NE 9.7 mph /  15.6 km/h 12.9 mph /  20.8 km/h 80 % 0.0 in /  0 mm
07:01 -10.4 °F /  -23.6 °C -13.3 °F /  -25.2 °C 1010.7 in /  34222.3 hPa NE 16.3 mph /  26.2 km/h 17.7 mph /  28.5 km/h 79 % 0.0 in /  0 mm
07:07 -10.3 °F /  -23.5 °C -13.2 °F /  -25.1 °C 1010.7 in /  34222.3 hPa NNE 3.2 mph /  5.1 km/h 11.3 mph /  18.2 km/h 79 % 0.0 in /  0 mm
07:13 -10.4 °F /  -23.6 °C -13.3 °F /  -25.2 °C 1011.1 in /  34235.8 hPa NNE 4.7 mph /  7.6 km/h 14.5 mph /  23.3 km/h 79 % 0.0 in /  0 mm
07:19 -10.4 °F /  -23.6 °C -13.3 °F /  -25.2 °C 1010.7 in /  34222.3 hPa NE 6.4 mph /  10.3 km/h 17.7 mph /  28.5 km/h 79 % 0.0 in /  0 mm
07:25 -10.2 °F /  -23.4 °C -13.3 °F /  -25.2 °C 1010.7 in /  34222.3 hPa NE 4.7 mph /  7.6 km/h 24.1 mph /  38.8 km/h 78 % 0.0 in /  0 mm
07:31 -10.2 °F /  -23.4 °C -13.3 °F /  -25.2 °C 1010.7 in /  34222.3 hPa NNE 13.0 mph /  20.9 km/h 16.1 mph /  25.9 km/h 78 % 0.0 in /  0 mm
07:37 -10.3 °F /  -23.5 °C -13.4 °F /  -25.2 °C 1011.1 in /  34235.8 hPa NE 16.3 mph /  26.2 km/h 19.3 mph /  31.1 km/h 78 % 0.0 in /  0 mm
07:43 -10.2 °F /  -23.4 °C -13.3 °F /  -25.2 °C 1010.7 in /  34222.3 hPa NE 16.3 mph /  26.2 km/h 19.3 mph /  31.1 km/h 78 % 0.0 in /  0 mm
07:49 -10.2 °F /  -23.4 °C -13.3 °F /  -25.2 °C 1010.7 in /  34222.3 hPa ENE 16.3 mph /  26.2 km/h 22.5 mph /  36.2 km/h 78 % 0.0 in /  0 mm
07:55 -10.2 °F /  -23.4 °C -13.3 °F /  -25.2 °C 1010.7 in /  34222.3 hPa NE 7.9 mph /  12.7 km/h 17.7 mph /  28.5 km/h 78 % 0.0 in /  0 mm
08:01 -10.2 °F /  -23.4 °C -13.3 °F /  -25.2 °C 1010.7 in /  34222.3 hPa NNE 13.0 mph /  20.9 km/h 17.7 mph /  28.5 km/h 78 % 0.0 in /  0 mm
08:07 -10.1 °F /  -23.4 °C -13.2 °F /  -25.1 °C 1010.7 in /  34222.3 hPa NE 3.2 mph /  5.1 km/h 17.7 mph /  28.5 km/h 78 % 0.0 in /  0 mm
08:13 -10.1 °F /  -23.4 °C -13.2 °F /  -25.1 °C 1010.7 in /  34222.3 hPa ENE 1.4 mph /  2.3 km/h 16.1 mph /  25.9 km/h 78 % 0.0 in /  0 mm
08:19 -10.0 °F /  -23.3 °C -13.1 °F /  -25.1 °C 1011.1 in /  34235.8 hPa NE 4.7 mph /  7.6 km/h 19.3 mph /  31.1 km/h 78 % 0.0 in /  0 mm
08:25 -9.8 °F /  -23.2 °C -12.9 °F /  -24.9 °C 1010.7 in /  34222.3 hPa NE 9.7 mph /  15.6 km/h 19.3 mph /  31.1 km/h 78 % 0.0 in /  0 mm
08:31 -9.7 °F /  -23.2 °C -13.0 °F /  -25 °C 1010.7 in /  34222.3 hPa NNE 11.1 mph /  17.9 km/h 20.9 mph /  33.6 km/h 77 % 0.0 in /  0 mm
08:37 -9.6 °F /  -23.1 °C -13.0 °F /  -25 °C 1010.7 in /  34222.3 hPa NE 7.9 mph /  12.7 km/h 22.5 mph /  36.2 km/h 76 % 0.0 in /  0 mm
08:43 -9.4 °F /  -23 °C -12.8 °F /  -24.9 °C 1010.7 in /  34222.3 hPa NE 16.3 mph /  26.2 km/h 17.7 mph /  28.5 km/h 76 % 0.0 in /  0 mm
08:49 -9.2 °F /  -22.9 °C -12.6 °F /  -24.8 °C 1010.7 in /  34222.3 hPa ENE 6.4 mph /  10.3 km/h 11.3 mph /  18.2 km/h 76 % 0.0 in /  0 mm
08:55 -9.1 °F /  -22.8 °C -12.7 °F /  -24.8 °C 1010.7 in /  34222.3 hPa NNE 11.1 mph /  17.9 km/h 11.3 mph /  18.2 km/h 75 % 0.0 in /  0 mm
09:01 -8.9 °F /  -22.7 °C -12.7 °F /  -24.8 °C 1010.4 in /  34212.1 hPa NE 9.7 mph /  15.6 km/h 16.1 mph /  25.9 km/h 74 % 0.0 in /  0 mm
09:07 -8.7 °F /  -22.6 °C -12.5 °F /  -24.7 °C 1010.4 in /  34212.1 hPa NE 3.2 mph /  5.1 km/h 19.3 mph /  31.1 km/h 74 % 0.0 in /  0 mm
09:13 -8.6 °F /  -22.6 °C -12.4 °F /  -24.7 °C 1010.4 in /  34212.1 hPa ENE 3.2 mph /  5.1 km/h 12.9 mph /  20.8 km/h 74 % 0.0 in /  0 mm
09:19 -8.4 °F /  -22.4 °C -12.4 °F /  -24.7 °C 1010.0 in /  34198.6 hPa NE 9.7 mph /  15.6 km/h 19.3 mph /  31.1 km/h 73 % 0.0 in /  0 mm
09:25 -8.2 °F /  -22.3 °C -12.2 °F /  -24.6 °C 1010.0 in /  34198.6 hPa NE 4.7 mph /  7.6 km/h 14.5 mph /  23.3 km/h 73 % 0.0 in /  0 mm
09:31 -8.1 °F /  -22.3 °C -12.3 °F /  -24.6 °C 1010.0 in /  34198.6 hPa NNE 11.1 mph /  17.9 km/h 16.1 mph /  25.9 km/h 72 % 0.0 in /  0 mm
09:37 -8.0 °F /  -22.2 °C -12.3 °F /  -24.6 °C 1010.0 in /  34198.6 hPa NE 11.1 mph /  17.9 km/h 17.7 mph /  28.5 km/h 71 % 0.0 in /  0 mm
09:43 -7.9 °F /  -22.2 °C -12.2 °F /  -24.6 °C 1010.0 in /  34198.6 hPa East 1.4 mph /  2.3 km/h 11.3 mph /  18.2 km/h 71 % 0.0 in /  0 mm
09:49 -7.6 °F /  -22 °C -11.9 °F /  -24.4 °C 1009.7 in /  34188.4 hPa ENE 19.5 mph /  31.4 km/h 19.5 mph /  31.4 km/h 71 % 0.0 in /  0 mm
09:55 -7.3 °F /  -21.8 °C -11.8 °F /  -24.3 °C 1009.7 in /  34188.4 hPa NE 9.7 mph /  15.6 km/h 16.1 mph /  25.9 km/h 70 % 0.0 in /  0 mm
09:59 -7.2 °F /  -21.8 °C -11.7 °F /  -24.3 °C 1009.7 in /  34188.4 hPa ESE 3.2 mph /  5.1 km/h 12.9 mph /  20.8 km/h 70 % 0.0 in /  0 mm
10:01 -7.1 °F /  -21.7 °C -11.8 °F /  -24.3 °C 1009.7 in /  34188.4 hPa NE 13.0 mph /  20.9 km/h 20.9 mph /  33.6 km/h 69 % 0.0 in /  0 mm
10:07 -6.8 °F /  -21.6 °C -11.9 °F /  -24.4 °C 1009.4 in /  34178.3 hPa NNE 4.7 mph /  7.6 km/h 25.7 mph /  41.4 km/h 67 % 0.0 in /  0 mm
10:13 -6.6 °F /  -21.4 °C -11.9 °F /  -24.4 °C 1009.4 in /  34178.3 hPa NE 4.7 mph /  7.6 km/h 20.9 mph /  33.6 km/h 66 % 0.0 in /  0 mm
10:19 -6.2 °F /  -21.2 °C -12.1 °F /  -24.5 °C 1009.0 in /  34164.7 hPa East 22.7 mph /  36.5 km/h 22.7 mph /  36.5 km/h 63 % 0.0 in /  0 mm
10:25 -6.2 °F /  -21.2 °C -12.3 °F /  -24.6 °C 1008.7 in /  34154.6 hPa East 22.7 mph /  36.5 km/h 25.7 mph /  41.4 km/h 62 % 0.0 in /  0 mm
10:31 -6.3 °F /  -21.3 °C -12.4 °F /  -24.7 °C 1008.7 in /  34154.6 hPa ENE 16.3 mph /  26.2 km/h 22.5 mph /  36.2 km/h 62 % 0.0 in /  0 mm
10:37 -6.2 °F /  -21.2 °C -12.3 °F /  -24.6 °C 1008.7 in /  34154.6 hPa NE 11.1 mph /  17.9 km/h 22.5 mph /  36.2 km/h 62 % 0.0 in /  0 mm
10:43 -5.9 °F /  -21.1 °C -12.2 °F /  -24.6 °C 1008.4 in /  34144.4 hPa ENE 7.9 mph /  12.7 km/h 25.7 mph /  41.4 km/h 61 % 0.0 in /  0 mm
10:49 -5.7 °F /  -20.9 °C -12.0 °F /  -24.4 °C 1008.4 in /  34144.4 hPa ENE 7.9 mph /  12.7 km/h 16.1 mph /  25.9 km/h 61 % 0.0 in /  0 mm
10:55 -5.5 °F /  -20.8 °C -12.0 °F /  -24.4 °C 1008.4 in /  34144.4 hPa NE 9.7 mph /  15.6 km/h 22.5 mph /  36.2 km/h 60 % 0.0 in /  0 mm
11:01 -5.3 °F /  -20.7 °C -11.8 °F /  -24.3 °C 1008.4 in /  34144.4 hPa ENE 6.4 mph /  10.3 km/h 22.5 mph /  36.2 km/h 60 % 0.0 in /  0 mm
11:07 -5.2 °F /  -20.7 °C -12.0 °F /  -24.4 °C 1008.4 in /  34144.4 hPa East 9.7 mph /  15.6 km/h 14.5 mph /  23.3 km/h 59 % 0.0 in /  0 mm
11:13 -5.2 °F /  -20.7 °C -11.8 °F /  -24.3 °C 1008.7 in /  34154.6 hPa ENE 11.1 mph /  17.9 km/h 19.3 mph /  31.1 km/h 60 % 0.0 in /  0 mm
11:19 -5.2 °F /  -20.7 °C -12.0 °F /  -24.4 °C 1008.7 in /  34154.6 hPa NE 17.7 mph /  28.5 km/h 24.1 mph /  38.8 km/h 59 % 0.0 in /  0 mm
11:25 -5.0 °F /  -20.6 °C -11.8 °F /  -24.3 °C 1008.7 in /  34154.6 hPa East 16.3 mph /  26.2 km/h 22.5 mph /  36.2 km/h 59 % 0.0 in /  0 mm
11:31 -4.8 °F /  -20.4 °C -11.8 °F /  -24.3 °C 1008.7 in /  34154.6 hPa ENE 9.7 mph /  15.6 km/h 22.5 mph /  36.2 km/h 58 % 0.0 in /  0 mm
11:37 -4.7 °F /  -20.4 °C -11.7 °F /  -24.3 °C 1008.7 in /  34154.6 hPa ENE 16.3 mph /  26.2 km/h 20.9 mph /  33.6 km/h 58 % 0.0 in /  0 mm
11:43 -4.4 °F /  -20.2 °C -11.6 °F /  -24.2 °C 1008.7 in /  34154.6 hPa ENE 4.7 mph /  7.6 km/h 16.1 mph /  25.9 km/h 57 % 0.0 in /  0 mm
11:49 -4.0 °F /  -20 °C -11.3 °F /  -24.1 °C 1008.7 in /  34154.6 hPa NE 11.1 mph /  17.9 km/h 16.1 mph /  25.9 km/h 57 % 0.0 in /  0 mm
11:55 -3.8 °F /  -19.9 °C -11.5 °F /  -24.2 °C 1008.4 in /  34144.4 hPa ENE 7.9 mph /  12.7 km/h 14.5 mph /  23.3 km/h 55 % 0.0 in /  0 mm
12:01 -3.7 °F /  -19.8 °C -11.4 °F /  -24.1 °C 1008.4 in /  34144.4 hPa NE 6.4 mph /  10.3 km/h 17.7 mph /  28.5 km/h 55 % 0.0 in /  0 mm
12:07 -3.4 °F /  -19.7 °C -11.4 °F /  -24.1 °C 1008.4 in /  34144.4 hPa ESE 6.4 mph /  10.3 km/h 16.1 mph /  25.9 km/h 54 % 0.0 in /  0 mm
12:13 -3.4 °F /  -19.7 °C -11.6 °F /  -24.2 °C 1008.4 in /  34144.4 hPa ENE 7.9 mph /  12.7 km/h 27.4 mph /  44.1 km/h 53 % 0.0 in /  0 mm
12:19 -3.2 °F /  -19.6 °C -11.9 °F /  -24.4 °C 1008.0 in /  34130.9 hPa NE 7.9 mph /  12.7 km/h 22.5 mph /  36.2 km/h 51 % 0.0 in /  0 mm
12:25 -3.2 °F /  -19.6 °C -11.7 °F /  -24.3 °C 1007.7 in /  34120.7 hPa NE 17.7 mph /  28.5 km/h 24.1 mph /  38.8 km/h 52 % 0.0 in /  0 mm
12:31 -3.2 °F /  -19.6 °C -11.9 °F /  -24.4 °C 1007.3 in /  34107.2 hPa ENE 11.1 mph /  17.9 km/h 17.7 mph /  28.5 km/h 51 % 0.0 in /  0 mm
12:37 -2.9 °F /  -19.4 °C -11.6 °F /  -24.2 °C 1007.3 in /  34107.2 hPa East 13.0 mph /  20.9 km/h 22.5 mph /  36.2 km/h 51 % 0.0 in /  0 mm
12:43 -2.9 °F /  -19.4 °C -11.9 °F /  -24.4 °C 1007.3 in /  34107.2 hPa NE 11.1 mph /  17.9 km/h 29.0 mph /  46.7 km/h 50 % 0.0 in /  0 mm
12:49 -2.7 °F /  -19.3 °C -11.4 °F /  -24.1 °C 1007.0 in /  34097 hPa ENE 16.3 mph /  26.2 km/h 20.9 mph /  33.6 km/h 51 % 0.0 in /  0 mm
12:55 -2.6 °F /  -19.2 °C -11.3 °F /  -24.1 °C 1007.0 in /  34097 hPa NE 6.4 mph /  10.3 km/h 22.5 mph /  36.2 km/h 51 % 0.0 in /  0 mm
13:01 -2.5 °F /  -19.2 °C -11.5 °F /  -24.2 °C 1006.7 in /  34086.9 hPa East 13.0 mph /  20.9 km/h 19.3 mph /  31.1 km/h 50 % 0.0 in /  0 mm
13:07 -2.6 °F /  -19.2 °C -11.6 °F /  -24.2 °C 1006.7 in /  34086.9 hPa NNE 17.7 mph /  28.5 km/h 22.5 mph /  36.2 km/h 50 % 0.0 in /  0 mm
13:13 -2.4 °F /  -19.1 °C -11.2 °F /  -24 °C 1006.7 in /  34086.9 hPa ENE 3.2 mph /  5.1 km/h 17.7 mph /  28.5 km/h 51 % 0.0 in /  0 mm
13:19 -2.1 °F /  -18.9 °C -11.1 °F /  -23.9 °C 1006.7 in /  34086.9 hPa East 4.7 mph /  7.6 km/h 24.1 mph /  38.8 km/h 50 % 0.0 in /  0 mm
13:25 -1.9 °F /  -18.8 °C -10.9 °F /  -23.8 °C 1006.7 in /  34086.9 hPa East 20.9 mph /  33.6 km/h 20.9 mph /  33.6 km/h 50 % 0.0 in /  0 mm
13:31 -1.9 °F /  -18.8 °C -10.9 °F /  -23.8 °C 1006.3 in /  34073.3 hPa NNW 13.0 mph /  20.9 km/h 20.9 mph /  33.6 km/h 50 % 0.0 in /  0 mm
13:37 -1.8 °F /  -18.8 °C -10.9 °F /  -23.8 °C 1006.3 in /  34073.3 hPa ENE 19.5 mph /  31.4 km/h 22.5 mph /  36.2 km/h 50 % 0.0 in /  0 mm
13:43 -1.7 °F /  -18.7 °C -10.8 °F /  -23.8 °C 1006.0 in /  34063.2 hPa ENE 13.0 mph /  20.9 km/h 20.9 mph /  33.6 km/h 50 % 0.0 in /  0 mm
13:49 -1.7 °F /  -18.7 °C -10.8 °F /  -23.8 °C 1006.0 in /  34063.2 hPa NE 16.3 mph /  26.2 km/h 24.1 mph /  38.8 km/h 50 % 0.0 in /  0 mm
13:55 -1.6 °F /  -18.7 °C -10.7 °F /  -23.7 °C 1006.0 in /  34063.2 hPa NE 19.5 mph /  31.4 km/h 20.9 mph /  33.6 km/h 50 % 0.0 in /  0 mm
14:01 -1.4 °F /  -18.6 °C -10.2 °F /  -23.4 °C 1005.6 in /  34049.6 hPa NE 11.1 mph /  17.9 km/h 19.3 mph /  31.1 km/h 51 % 0.0 in /  0 mm
14:07 -1.3 °F /  -18.5 °C -10.6 °F /  -23.7 °C 1005.6 in /  34049.6 hPa East 16.3 mph /  26.2 km/h 25.7 mph /  41.4 km/h 49 % 0.0 in /  0 mm
14:13 -1.3 °F /  -18.5 °C -10.4 °F /  -23.6 °C 1005.6 in /  34049.6 hPa NE 9.7 mph /  15.6 km/h 24.1 mph /  38.8 km/h 50 % 0.0 in /  0 mm
14:19 -1.1 °F /  -18.4 °C -10.5 °F /  -23.6 °C 1005.6 in /  34049.6 hPa NE 13.0 mph /  20.9 km/h 27.4 mph /  44.1 km/h 49 % 0.0 in /  0 mm
14:25 -1.0 °F /  -18.3 °C -10.4 °F /  -23.6 °C 1005.6 in /  34049.6 hPa ENE 11.1 mph /  17.9 km/h 25.7 mph /  41.4 km/h 49 % 0.0 in /  0 mm
14:31 -0.9 °F /  -18.3 °C -10.5 °F /  -23.6 °C 1005.6 in /  34049.6 hPa ENE 9.7 mph /  15.6 km/h 22.5 mph /  36.2 km/h 48 % 0.0 in /  0 mm
14:37 -0.8 °F /  -18.2 °C -10.4 °F /  -23.6 °C 1005.6 in /  34049.6 hPa ENE 20.9 mph /  33.6 km/h 24.1 mph /  38.8 km/h 48 % 0.0 in /  0 mm
14:43 -0.7 °F /  -18.2 °C -10.4 °F /  -23.6 °C 1005.6 in /  34049.6 hPa NE 16.3 mph /  26.2 km/h 22.5 mph /  36.2 km/h 48 % 0.0 in /  0 mm
14:49 -0.6 °F /  -18.1 °C -10.5 °F /  -23.6 °C 1005.3 in /  34039.5 hPa East 14.3 mph /  23 km/h 24.1 mph /  38.8 km/h 47 % 0.0 in /  0 mm
14:56 -0.6 °F /  -18.1 °C -10.3 °F /  -23.5 °C 1005.3 in /  34039.5 hPa ENE 11.1 mph /  17.9 km/h 19.3 mph /  31.1 km/h 48 % 0.0 in /  0 mm
15:02 -0.4 °F /  -18 °C -10.3 °F /  -23.5 °C 1005.0 in /  34029.3 hPa ENE 9.7 mph /  15.6 km/h 19.3 mph /  31.1 km/h 47 % 0.0 in /  0 mm
15:07 -0.4 °F /  -18 °C -10.3 °F /  -23.5 °C 1005.0 in /  34029.3 hPa NE 9.7 mph /  15.6 km/h 27.4 mph /  44.1 km/h 47 % 0.0 in /  0 mm
15:14 -0.3 °F /  -17.9 °C -10.0 °F /  -23.3 °C 1004.6 in /  34015.8 hPa East 14.3 mph /  23 km/h 19.3 mph /  31.1 km/h 48 % 0.0 in /  0 mm
15:20 -0.2 °F /  -17.9 °C -9.9 °F /  -23.3 °C 1004.6 in /  34015.8 hPa ENE 11.1 mph /  17.9 km/h 14.5 mph /  23.3 km/h 48 % 0.0 in /  0 mm
15:26 -0.2 °F /  -17.9 °C -9.9 °F /  -23.3 °C 1004.3 in /  34005.6 hPa ENE 6.4 mph /  10.3 km/h 19.3 mph /  31.1 km/h 48 % 0.0 in /  0 mm
15:32 -0.2 °F /  -17.9 °C -9.9 °F /  -23.3 °C 1004.3 in /  34005.6 hPa ENE 16.3 mph /  26.2 km/h 32.2 mph /  51.8 km/h 48 % 0.0 in /  0 mm
15:38 -0.3 °F /  -17.9 °C -10.0 °F /  -23.3 °C 1004.3 in /  34005.6 hPa NE 14.3 mph /  23 km/h 22.5 mph /  36.2 km/h 48 % 0.0 in /  0 mm
15:44 -0.3 °F /  -17.9 °C -9.7 °F /  -23.2 °C 1004.3 in /  34005.6 hPa NNE 16.3 mph /  26.2 km/h 24.1 mph /  38.8 km/h 49 % 0.0 in /  0 mm
15:50 -0.2 °F /  -17.9 °C -9.6 °F /  -23.1 °C 1004.3 in /  34005.6 hPa ENE 7.9 mph /  12.7 km/h 17.7 mph /  28.5 km/h 49 % 0.0 in /  0 mm
15:56 -0.2 °F /  -17.9 °C -9.9 °F /  -23.3 °C 1004.3 in /  34005.6 hPa NE 14.3 mph /  23 km/h 25.7 mph /  41.4 km/h 48 % 0.0 in /  0 mm
16:02 -0.2 °F /  -17.9 °C -9.6 °F /  -23.1 °C 1003.9 in /  33992.1 hPa NNE 7.9 mph /  12.7 km/h 20.9 mph /  33.6 km/h 49 % 0.0 in /  0 mm
16:08 -0.2 °F /  -17.9 °C -9.6 °F /  -23.1 °C 1003.9 in /  33992.1 hPa NNE 6.4 mph /  10.3 km/h 24.1 mph /  38.8 km/h 49 % 0.0 in /  0 mm
16:14 0.0 °F /  -17.8 °C -9.2 °F /  -22.9 °C 1003.6 in /  33981.9 hPa ENE 7.9 mph /  12.7 km/h 11.3 mph /  18.2 km/h 50 % 0.0 in /  0 mm
16:20 0.1 °F /  -17.7 °C -9.4 °F /  -23 °C 1003.3 in /  33971.7 hPa NE 6.4 mph /  10.3 km/h 19.3 mph /  31.1 km/h 49 % 0.0 in /  0 mm
16:26 0.0 °F /  -17.8 °C -9.7 °F /  -23.2 °C 1003.3 in /  33971.7 hPa NE 22.7 mph /  36.5 km/h 30.6 mph /  49.2 km/h 48 % 0.0 in /  0 mm
16:32 0.0 °F /  -17.8 °C -9.4 °F /  -23 °C 1003.3 in /  33971.7 hPa ENE 24.1 mph /  38.8 km/h 24.1 mph /  38.8 km/h 49 % 0.0 in /  0 mm
16:38 -0.1 °F /  -17.8 °C -9.8 °F /  -23.2 °C 1002.9 in /  33958.2 hPa NE 14.3 mph /  23 km/h 25.7 mph /  41.4 km/h 48 % 0.0 in /  0 mm
16:44 -0.2 °F /  -17.9 °C -9.6 °F /  -23.1 °C 1002.9 in /  33958.2 hPa ENE 14.3 mph /  23 km/h 20.9 mph /  33.6 km/h 49 % 0.0 in /  0 mm
16:50 -0.2 °F /  -17.9 °C -9.6 °F /  -23.1 °C 1002.9 in /  33958.2 hPa East 22.7 mph /  36.5 km/h 29.0 mph /  46.7 km/h 49 % 0.0 in /  0 mm
16:56 -0.2 °F /  -17.9 °C -9.6 °F /  -23.1 °C 1002.6 in /  33948 hPa East 20.9 mph /  33.6 km/h 25.7 mph /  41.4 km/h 49 % 0.0 in /  0 mm
17:02 -0.2 °F /  -17.9 °C -9.6 °F /  -23.1 °C 1002.6 in /  33948 hPa ENE 27.4 mph /  44.1 km/h 29.0 mph /  46.7 km/h 49 % 0.0 in /  0 mm
17:08 -0.2 °F /  -17.9 °C -9.4 °F /  -23 °C 1002.3 in /  33937.9 hPa ENE 20.9 mph /  33.6 km/h 24.1 mph /  38.8 km/h 50 % 0.0 in /  0 mm
17:14 -0.2 °F /  -17.9 °C -9.1 °F /  -22.8 °C 1002.3 in /  33937.9 hPa East 14.3 mph /  23 km/h 25.7 mph /  41.4 km/h 51 % 0.0 in /  0 mm
17:20 -0.2 °F /  -17.9 °C -8.6 °F /  -22.6 °C 1002.3 in /  33937.9 hPa East 19.5 mph /  31.4 km/h 27.4 mph /  44.1 km/h 53 % 0.0 in /  0 mm
17:26 -0.3 °F /  -17.9 °C -7.8 °F /  -22.1 °C 1002.3 in /  33937.9 hPa East 22.7 mph /  36.5 km/h 29.0 mph /  46.7 km/h 57 % 0.0 in /  0 mm
17:32 -0.4 °F /  -18 °C -7.2 °F /  -21.8 °C 1002.3 in /  33937.9 hPa East 11.1 mph /  17.9 km/h 24.1 mph /  38.8 km/h 60 % 0.0 in /  0 mm
17:38 -0.8 °F /  -18.2 °C -6.4 °F /  -21.3 °C 1002.3 in /  33937.9 hPa East 14.3 mph /  23 km/h 24.1 mph /  38.8 km/h 66 % 0.0 in /  0 mm
17:44 -1.3 °F /  -18.5 °C -5.7 °F /  -20.9 °C 1002.3 in /  33937.9 hPa ENE 7.9 mph /  12.7 km/h 17.7 mph /  28.5 km/h 72 % 0.0 in /  0 mm
17:50 -1.6 °F /  -18.7 °C -5.4 °F /  -20.8 °C 1002.3 in /  33937.9 hPa East 7.9 mph /  12.7 km/h 17.7 mph /  28.5 km/h 75 % 0.0 in /  0 mm
17:56 -1.8 °F /  -18.8 °C -5.3 °F /  -20.7 °C 1002.3 in /  33937.9 hPa ENE 16.3 mph /  26.2 km/h 22.5 mph /  36.2 km/h 77 % 0.0 in /  0 mm
18:02 -1.9 °F /  -18.8 °C -5.1 °F /  -20.6 °C 1002.6 in /  33948 hPa East 6.4 mph /  10.3 km/h 16.1 mph /  25.9 km/h 79 % 0.0 in /  0 mm
18:08 -1.9 °F /  -18.8 °C -5.1 °F /  -20.6 °C 1002.3 in /  33937.9 hPa East 4.7 mph /  7.6 km/h 14.5 mph /  23.3 km/h 79 % 0.0 in /  0 mm
18:14 -1.9 °F /  -18.8 °C -4.9 °F /  -20.5 °C 1001.9 in /  33924.3 hPa East 6.4 mph /  10.3 km/h 14.5 mph /  23.3 km/h 80 % 0.0 in /  0 mm
18:20 -2.1 °F /  -18.9 °C -4.9 °F /  -20.5 °C 1001.6 in /  33914.2 hPa ESE 9.7 mph /  15.6 km/h 16.1 mph /  25.9 km/h 81 % 0.0 in /  0 mm
18:26 -2.1 °F /  -18.9 °C -4.8 °F /  -20.4 °C 1001.6 in /  33914.2 hPa ENE 9.7 mph /  15.6 km/h 19.3 mph /  31.1 km/h 82 % 0.0 in /  0 mm
18:32 -2.2 °F /  -19 °C -4.7 °F /  -20.4 °C 1001.9 in /  33924.3 hPa ENE 14.3 mph /  23 km/h 16.1 mph /  25.9 km/h 83 % 0.0 in /  0 mm
18:38 -2.3 °F /  -19.1 °C -4.5 °F /  -20.3 °C 1001.9 in /  33924.3 hPa ENE 16.3 mph /  26.2 km/h 17.7 mph /  28.5 km/h 85 % 0.0 in /  0 mm
18:44 -2.3 °F /  -19.1 °C -4.3 °F /  -20.2 °C 1001.9 in /  33924.3 hPa ENE 13.0 mph /  20.9 km/h 19.3 mph /  31.1 km/h 86 % 0.0 in /  0 mm
18:50 -2.4 °F /  -19.1 °C -4.4 °F /  -20.2 °C 1001.9 in /  33924.3 hPa NE 6.4 mph /  10.3 km/h 24.1 mph /  38.8 km/h 86 % 0.0 in /  0 mm
18:56 -2.5 °F /  -19.2 °C -4.4 °F /  -20.2 °C 1001.9 in /  33924.3 hPa East 14.3 mph /  23 km/h 30.6 mph /  49.2 km/h 87 % 0.0 in /  0 mm
19:02 -2.6 °F /  -19.2 °C -4.3 °F /  -20.2 °C 1001.9 in /  33924.3 hPa ENE 14.3 mph /  23 km/h 20.9 mph /  33.6 km/h 88 % 0.0 in /  0 mm
19:08 -2.7 °F /  -19.3 °C -4.4 °F /  -20.2 °C 1001.6 in /  33914.2 hPa ENE 16.3 mph /  26.2 km/h 20.9 mph /  33.6 km/h 88 % 0.0 in /  0 mm
19:14 -2.7 °F /  -19.3 °C -4.3 °F /  -20.2 °C 1001.6 in /  33914.2 hPa ENE 3.2 mph /  5.1 km/h 17.7 mph /  28.5 km/h 89 % 0.0 in /  0 mm
19:20 -2.7 °F /  -19.3 °C -4.4 °F /  -20.2 °C 1001.2 in /  33900.6 hPa NE 4.7 mph /  7.6 km/h 19.3 mph /  31.1 km/h 88 % 0.0 in /  0 mm
19:26 -2.7 °F /  -19.3 °C -4.4 °F /  -20.2 °C 1001.2 in /  33900.6 hPa NNE 16.3 mph /  26.2 km/h 17.7 mph /  28.5 km/h 88 % 0.0 in /  0 mm
19:32 -2.8 °F /  -19.3 °C -4.5 °F /  -20.3 °C 1001.2 in /  33900.6 hPa ENE 4.7 mph /  7.6 km/h 16.1 mph /  25.9 km/h 88 % 0.0 in /  0 mm
19:38 -2.8 °F /  -19.3 °C -4.5 °F /  -20.3 °C 1001.2 in /  33900.6 hPa ENE 7.9 mph /  12.7 km/h 25.7 mph /  41.4 km/h 88 % 0.0 in /  0 mm
19:44 -2.9 °F /  -19.4 °C -4.6 °F /  -20.3 °C 1001.2 in /  33900.6 hPa NE 7.9 mph /  12.7 km/h 19.3 mph /  31.1 km/h 88 % 0.0 in /  0 mm
19:50 -2.9 °F /  -19.4 °C -4.6 °F /  -20.3 °C 1000.9 in /  33890.5 hPa ENE 17.7 mph /  28.5 km/h 20.9 mph /  33.6 km/h 88 % 0.0 in /  0 mm
19:56 -2.9 °F /  -19.4 °C -4.6 °F /  -20.3 °C 1000.9 in /  33890.5 hPa NE 9.7 mph /  15.6 km/h 17.7 mph /  28.5 km/h 88 % 0.0 in /  0 mm
20:02 -2.9 °F /  -19.4 °C -4.6 °F /  -20.3 °C 1000.9 in /  33890.5 hPa NE 17.7 mph /  28.5 km/h 17.7 mph /  28.5 km/h 88 % 0.0 in /  0 mm
20:08 -3.0 °F /  -19.4 °C -4.7 °F /  -20.4 °C 1000.6 in /  33880.3 hPa NE 7.9 mph /  12.7 km/h 19.3 mph /  31.1 km/h 88 % 0.0 in /  0 mm
20:14 -3.0 °F /  -19.4 °C -4.6 °F /  -20.3 °C 1000.6 in /  33880.3 hPa ENE 7.9 mph /  12.7 km/h 20.9 mph /  33.6 km/h 89 % 0.0 in /  0 mm
20:20 -3.0 °F /  -19.4 °C -4.6 °F /  -20.3 °C 1000.6 in /  33880.3 hPa ENE 4.7 mph /  7.6 km/h 14.5 mph /  23.3 km/h 89 % 0.0 in /  0 mm
20:26 -3.0 °F /  -19.4 °C -4.6 °F /  -20.3 °C 1000.6 in /  33880.3 hPa NE 9.7 mph /  15.6 km/h 17.7 mph /  28.5 km/h 89 % 0.0 in /  0 mm
20:32 -2.9 °F /  -19.4 °C -4.5 °F /  -20.3 °C 1000.2 in /  33866.8 hPa NE 14.3 mph /  23 km/h 24.1 mph /  38.8 km/h 89 % 0.0 in /  0 mm
20:38 -2.9 °F /  -19.4 °C -4.5 °F /  -20.3 °C 1000.2 in /  33866.8 hPa NE 14.3 mph /  23 km/h 19.3 mph /  31.1 km/h 89 % 0.0 in /  0 mm
20:44 -2.9 °F /  -19.4 °C -4.5 °F /  -20.3 °C 1000.2 in /  33866.8 hPa NE 17.7 mph /  28.5 km/h 17.7 mph /  28.5 km/h 89 % 0.0 in /  0 mm
20:50 -2.9 °F /  -19.4 °C -4.5 °F /  -20.3 °C 1000.2 in /  33866.8 hPa NE 3.2 mph /  5.1 km/h 19.3 mph /  31.1 km/h 89 % 0.0 in /  0 mm
20:56 -2.8 °F /  -19.3 °C -4.4 °F /  -20.2 °C 1000.2 in /  33866.8 hPa NE 7.9 mph /  12.7 km/h 12.9 mph /  20.8 km/h 89 % 0.0 in /  0 mm
21:02 -2.8 °F /  -19.3 °C -4.4 °F /  -20.2 °C 1000.2 in /  33866.8 hPa ENE 14.3 mph /  23 km/h 16.1 mph /  25.9 km/h 89 % 0.0 in /  0 mm
21:08 -2.8 °F /  -19.3 °C -4.4 °F /  -20.2 °C 1000.2 in /  33866.8 hPa NE 17.7 mph /  28.5 km/h 17.7 mph /  28.5 km/h 89 % 0.0 in /  0 mm
21:14 -2.8 °F /  -19.3 °C -4.4 °F /  -20.2 °C 999.9 in /  33856.6 hPa ENE 9.7 mph /  15.6 km/h 20.9 mph /  33.6 km/h 89 % 0.0 in /  0 mm
21:20 -2.7 °F /  -19.3 °C -4.3 °F /  -20.2 °C 999.9 in /  33856.6 hPa ENE 11.1 mph /  17.9 km/h 20.9 mph /  33.6 km/h 89 % 0.0 in /  0 mm
21:28 -2.7 °F /  -19.3 °C -4.1 °F /  -20.1 °C 999.9 in /  33856.6 hPa NE 7.9 mph /  12.7 km/h 12.9 mph /  20.8 km/h 90 % 0.0 in /  0 mm
21:34 -2.7 °F /  -19.3 °C -4.1 °F /  -20.1 °C 999.9 in /  33856.6 hPa ENE 11.1 mph /  17.9 km/h 14.5 mph /  23.3 km/h 90 % 0.0 in /  0 mm
21:40 -2.7 °F /  -19.3 °C -4.1 °F /  -20.1 °C 999.9 in /  33856.6 hPa ENE 3.2 mph /  5.1 km/h 17.7 mph /  28.5 km/h 90 % 0.0 in /  0 mm
21:46 -2.7 °F /  -19.3 °C -4.0 °F /  -20 °C 999.9 in /  33856.6 hPa NE 7.9 mph /  12.7 km/h 11.3 mph /  18.2 km/h 91 % 0.0 in /  0 mm
21:50 -2.6 °F /  -19.2 °C -3.9 °F /  -19.9 °C 999.9 in /  33856.6 hPa NNE 11.1 mph /  17.9 km/h 19.3 mph /  31.1 km/h 91 % 0.0 in /  0 mm
21:56 -2.6 °F /  -19.2 °C -3.9 °F /  -19.9 °C 999.9 in /  33856.6 hPa ENE 1.4 mph /  2.3 km/h 16.1 mph /  25.9 km/h 91 % 0.0 in /  0 mm
22:02 -2.6 °F /  -19.2 °C -3.9 °F /  -19.9 °C 999.5 in /  33843.1 hPa East 19.5 mph /  31.4 km/h 19.5 mph /  31.4 km/h 91 % 0.0 in /  0 mm
22:08 -2.6 °F /  -19.2 °C -3.7 °F /  -19.8 °C 999.5 in /  33843.1 hPa ENE 7.9 mph /  12.7 km/h 12.9 mph /  20.8 km/h 92 % 0.0 in /  0 mm
22:20 -2.6 °F /  -19.2 °C -3.7 °F /  -19.8 °C 999.2 in /  33832.9 hPa NNE 3.2 mph /  5.1 km/h 12.9 mph /  20.8 km/h 92 % 0.0 in /  0 mm
22:26 -2.6 °F /  -19.2 °C -3.7 °F /  -19.8 °C 999.2 in /  33832.9 hPa NE 9.7 mph /  15.6 km/h 14.5 mph /  23.3 km/h 92 % 0.0 in /  0 mm
22:32 -2.5 °F /  -19.2 °C -3.6 °F /  -19.8 °C 999.2 in /  33832.9 hPa ENE 7.9 mph /  12.7 km/h 17.7 mph /  28.5 km/h 92 % 0.0 in /  0 mm
22:38 -2.5 °F /  -19.2 °C -3.6 °F /  -19.8 °C 999.2 in /  33832.9 hPa ENE 7.9 mph /  12.7 km/h 14.5 mph /  23.3 km/h 92 % 0.0 in /  0 mm
22:44 -2.5 °F /  -19.2 °C -3.6 °F /  -19.8 °C 999.2 in /  33832.9 hPa NE 6.4 mph /  10.3 km/h 11.3 mph /  18.2 km/h 92 % 0.0 in /  0 mm
22:50 -2.4 °F /  -19.1 °C -3.5 °F /  -19.7 °C 998.9 in /  33822.8 hPa NNE 3.2 mph /  5.1 km/h 16.1 mph /  25.9 km/h 92 % 0.0 in /  0 mm
22:56 -2.4 °F /  -19.1 °C -3.5 °F /  -19.7 °C 998.9 in /  33822.8 hPa NE 7.9 mph /  12.7 km/h 14.5 mph /  23.3 km/h 92 % 0.0 in /  0 mm
23:02 -2.4 °F /  -19.1 °C -3.5 °F /  -19.7 °C 998.9 in /  33822.8 hPa ENE 4.7 mph /  7.6 km/h 12.9 mph /  20.8 km/h 92 % 0.0 in /  0 mm
23:08 -2.4 °F /  -19.1 °C -3.7 °F /  -19.8 °C 998.5 in /  33809.2 hPa NE 11.1 mph /  17.9 km/h 17.7 mph /  28.5 km/h 91 % 0.0 in /  0 mm
23:14 -2.3 °F /  -19.1 °C -3.6 °F /  -19.8 °C 998.5 in /  33809.2 hPa East 1.4 mph /  2.3 km/h 17.7 mph /  28.5 km/h 91 % 0.0 in /  0 mm
23:20 -2.3 °F /  -19.1 °C -3.6 °F /  -19.8 °C 998.5 in /  33809.2 hPa ENE 1.4 mph /  2.3 km/h 11.3 mph /  18.2 km/h 91 % 0.0 in /  0 mm
23:26 -2.3 °F /  -19.1 °C -3.6 °F /  -19.8 °C 998.5 in /  33809.2 hPa NE 7.9 mph /  12.7 km/h 16.1 mph /  25.9 km/h 91 % 0.0 in /  0 mm
23:32 -2.3 °F /  -19.1 °C -3.6 °F /  -19.8 °C 998.5 in /  33809.2 hPa ENE 1.4 mph /  2.3 km/h 12.9 mph /  20.8 km/h 91 % 0.0 in /  0 mm
23:38 -2.3 °F /  -19.1 °C -3.6 °F /  -19.8 °C 998.2 in /  33799.1 hPa Calm   12.9 mph /  20.8 km/h 91 % 0.0 in /  0 mm
23:44 -2.3 °F /  -19.1 °C -3.4 °F /  -19.7 °C 998.2 in /  33799.1 hPa NE 3.2 mph /  5.1 km/h 12.9 mph /  20.8 km/h 92 % 0.0 in /  0 mm
23:50 -2.3 °F /  -19.1 °C -3.4 °F /  -19.7 °C 998.2 in /  33799.1 hPa NE 6.4 mph /  10.3 km/h 14.5 mph /  23.3 km/h 92 % 0.0 in /  0 mm
23:56 -2.3 °F /  -19.1 °C -3.4 °F /  -19.7 °C 997.9 in /  33788.9 hPa NNE 11.1 mph /  17.9 km/h 12.9 mph /  20.8 km/h 92 % 0.0 in /  0 mm
Meteo18
Compliments of Weather Underground - 4 mb

Script developed by  Jim McMurry - jmcmurry@mwt.net Adapted for the template by  Wim van der Kuil - Leuven-Template.eu

You find our weather info also at:

European Weather Network

Weather Underground

Equipment we use:

Weather-station
Davis Vue

Weather-program
Meteobridge

Weather-server
Raspberry PI 2 B+

Provider
1 and 1

Davis Vue

Meteobridge

Raspberry PI 2 B+

1 and 1